createdAt,value
2022-12-14T00:01:10.985Z,2.12
2022-12-14T00:06:32.418Z,2.57
2022-12-14T00:11:57.831Z,2.73
2022-12-14T00:17:22.753Z,2.76
2022-12-14T00:22:49.753Z,2.54
2022-12-14T00:28:15.934Z,2.64
2022-12-14T00:33:40.020Z,2.72
2022-12-14T00:39:06.982Z,2.59
2022-12-14T00:44:33.587Z,2.72
2022-12-14T00:50:00.912Z,2.83
2022-12-14T00:55:24.160Z,2.71
2022-12-14T01:00:45.174Z,2.59
2022-12-14T01:06:15.097Z,2.87
2022-12-14T01:11:41.276Z,2.93
2022-12-14T01:17:05.643Z,2.41
2022-12-14T01:22:33.080Z,2.47
2022-12-14T01:27:58.305Z,2.82
2022-12-14T01:33:25.458Z,2.46
2022-12-14T01:38:52.296Z,2.83
2022-12-14T01:44:17.585Z,2.68
2022-12-14T01:50:07.057Z,2.53
2022-12-14T01:55:29.822Z,2.32
2022-12-14T02:00:57.181Z,2.47
2022-12-14T02:06:21.386Z,2.58
2022-12-14T02:11:43.101Z,2.72
2022-12-14T02:17:10.163Z,2.54
2022-12-14T02:22:35.680Z,2.75
2022-12-14T02:28:30.228Z,2.66
2022-12-14T02:34:07.188Z,2.17
2022-12-14T02:39:32.019Z,2.15
2022-12-14T02:44:58.727Z,2.90
2022-12-14T02:50:23.201Z,2.44
2022-12-14T02:55:44.676Z,2.54
2022-12-14T03:01:10.717Z,2.64
2022-12-14T03:06:36.396Z,2.54
2022-12-14T03:12:10.190Z,2.53
2022-12-14T03:17:32.363Z,2.89
2022-12-14T03:22:58.548Z,2.40
2022-12-14T03:28:22.727Z,3.46
2022-12-14T03:33:48.374Z,2.86
2022-12-14T03:39:13.828Z,2.84
2022-12-14T03:44:49.692Z,2.90
2022-12-14T03:50:08.060Z,2.95
2022-12-14T03:55:34.590Z,2.82
2022-12-14T04:01:02.814Z,2.79
2022-12-14T04:06:25.123Z,3.81
2022-12-14T04:11:53.996Z,3.23
2022-12-14T04:17:19.024Z,3.25
2022-12-14T04:22:42.928Z,3.28
2022-12-14T04:28:09.985Z,2.92
2022-12-14T04:33:35.909Z,3.50
2022-12-14T04:39:03.855Z,3.62
2022-12-14T04:44:30.550Z,3.82
2022-12-14T04:49:52.650Z,3.53
2022-12-14T04:55:17.515Z,3.66
2022-12-14T05:00:42.506Z,4.02
2022-12-14T05:06:07.764Z,3.75
2022-12-14T05:11:52.748Z,3.43
2022-12-14T05:17:08.181Z,4.17
2022-12-14T05:22:30.011Z,4.27
2022-12-14T05:27:53.800Z,4.19
2022-12-14T05:33:14.914Z,4.54
2022-12-14T05:38:42.176Z,3.98
2022-12-14T05:44:08.478Z,4.00
2022-12-14T05:49:35.505Z,4.19
2022-12-14T05:55:04.745Z,4.37
2022-12-14T06:00:25.893Z,4.03
2022-12-14T06:05:52.789Z,4.97
2022-12-14T06:11:21.179Z,4.04
2022-12-14T06:16:41.960Z,4.20
2022-12-14T06:22:08.539Z,4.63
2022-12-14T06:27:34.083Z,4.54
2022-12-14T06:33:01.434Z,4.99
2022-12-14T06:38:27.749Z,5.18
2022-12-14T06:43:49.651Z,4.96
2022-12-14T06:49:11.069Z,5.43
2022-12-14T06:54:35.014Z,6.06
2022-12-14T07:00:01.765Z,5.79
2022-12-14T07:05:27.291Z,5.61
2022-12-14T07:11:00.551Z,6.11
2022-12-14T07:16:21.606Z,5.59
2022-12-14T07:21:45.967Z,6.39
2022-12-14T07:27:13.712Z,6.68
2022-12-14T07:32:41.145Z,6.72
2022-12-14T07:38:08.637Z,6.72
2022-12-14T07:43:32.060Z,6.83
2022-12-14T07:48:56.277Z,6.35
2022-12-14T07:54:19.145Z,7.31
2022-12-14T07:59:45.496Z,6.75
2022-12-14T08:05:12.736Z,6.82
2022-12-14T08:10:40.590Z,7.00
2022-12-14T08:16:05.696Z,8.00
2022-12-14T08:21:30.703Z,7.86
2022-12-14T08:26:55.905Z,7.58
2022-12-14T08:32:22.651Z,7.38
2022-12-14T08:37:47.457Z,7.53
2022-12-14T08:43:09.152Z,7.98
2022-12-14T08:48:35.935Z,7.84
2022-12-14T08:53:57.699Z,7.36
2022-12-14T08:59:52.207Z,8.14
2022-12-14T09:04:48.403Z,8.62
2022-12-14T09:10:14.702Z,9.14
2022-12-14T09:15:41.015Z,9.22
2022-12-14T09:21:07.821Z,9.30
2022-12-14T09:26:34.202Z,9.11
2022-12-14T09:31:59.966Z,9.06
2022-12-14T09:37:24.822Z,10.06
2022-12-14T09:42:51.442Z,9.88
2022-12-14T09:48:16.386Z,9.81
2022-12-14T09:53:42.614Z,9.49
2022-12-14T09:59:09.411Z,10.07
2022-12-14T10:04:33.192Z,10.00
2022-12-14T10:10:03.748Z,10.10
2022-12-14T10:15:29.051Z,10.02
2022-12-14T10:20:51.498Z,10.90
2022-12-14T10:26:13.230Z,9.08
2022-12-14T10:31:34.183Z,8.90
2022-12-14T10:36:55.442Z,9.51
2022-12-14T10:42:35.712Z,8.84
2022-12-14T10:48:02.278Z,9.39
2022-12-14T10:53:52.053Z,8.69
2022-12-14T10:59:18.267Z,8.89
2022-12-14T11:04:46.451Z,8.15
2022-12-14T11:10:13.479Z,8.60
2022-12-14T11:15:40.408Z,8.78
2022-12-14T11:21:03.038Z,9.10
2022-12-14T11:26:28.776Z,8.63
2022-12-14T11:31:56.030Z,7.95
2022-12-14T11:37:22.164Z,8.55
2022-12-14T11:42:48.204Z,8.28
2022-12-14T11:48:10.784Z,8.38
2022-12-14T11:53:40.312Z,8.24
2022-12-14T11:59:03.229Z,7.98
2022-12-14T12:04:32.078Z,8.36
2022-12-14T12:10:02.414Z,7.71
2022-12-14T12:15:34.333Z,8.21
2022-12-14T12:20:57.923Z,7.93
2022-12-14T12:26:25.125Z,8.36
2022-12-14T12:31:48.850Z,7.76
2022-12-14T12:37:26.823Z,8.40
2022-12-14T12:42:37.928Z,8.85
2022-12-14T12:48:02.568Z,8.82
2022-12-14T12:53:28.355Z,9.43
2022-12-14T12:58:53.585Z,8.08
2022-12-14T13:04:19.272Z,9.33
2022-12-14T13:09:44.839Z,8.09
2022-12-14T13:15:11.479Z,8.85
2022-12-14T13:20:33.190Z,8.66
2022-12-14T13:25:58.024Z,10.78
2022-12-14T13:31:26.901Z,8.00
2022-12-14T13:36:48.968Z,9.53
2022-12-14T13:42:29.141Z,7.47
2022-12-14T13:47:57.705Z,9.75
2022-12-14T13:53:24.468Z,9.33
2022-12-14T13:58:49.825Z,10.71
2022-12-14T14:04:12.731Z,8.37
2022-12-14T14:09:42.408Z,7.42
2022-12-14T14:15:21.278Z,6.79
2022-12-14T14:21:04.072Z,9.03
2022-12-14T14:26:47.516Z,8.15
2022-12-14T14:32:28.336Z,7.79
2022-12-14T14:37:51.553Z,7.54
2022-12-14T14:43:13.694Z,10.12
2022-12-14T14:48:40.765Z,7.45
2022-12-14T14:54:04.478Z,8.80
2022-12-14T14:59:50.775Z,8.89
2022-12-14T15:05:41.057Z,7.76
2022-12-14T15:10:36.035Z,8.53
2022-12-14T15:16:01.843Z,6.78
2022-12-14T15:21:36.590Z,7.59
2022-12-14T15:27:03.536Z,7.40
2022-12-14T15:32:32.783Z,8.06
2022-12-14T15:37:58.062Z,7.03
2022-12-14T15:43:20.140Z,7.85
2022-12-14T15:48:45.438Z,7.64
2022-12-14T15:54:15.396Z,7.55
2022-12-14T15:59:40.220Z,8.73
2022-12-14T16:05:05.682Z,7.28
2022-12-14T16:10:33.009Z,6.89
2022-12-14T16:15:57.221Z,6.74
2022-12-14T16:21:23.776Z,7.47
2022-12-14T16:26:50.462Z,6.69
2022-12-14T16:32:16.532Z,6.86
2022-12-14T16:37:41.745Z,6.94
2022-12-14T16:43:07.937Z,6.28
2022-12-14T16:48:43.875Z,8.79
2022-12-14T16:54:24.887Z,6.61
2022-12-14T16:59:50.642Z,6.27
2022-12-14T17:05:17.548Z,8.87
2022-12-14T17:10:41.401Z,8.47
2022-12-14T17:16:05.277Z,8.01
2022-12-14T17:21:34.727Z,7.39
2022-12-14T17:27:00.628Z,8.31
2022-12-14T17:32:21.595Z,9.59
2022-12-14T17:37:49.380Z,10.56
2022-12-14T17:43:12.417Z,8.26
2022-12-14T17:48:38.416Z,6.77
2022-12-14T17:54:05.712Z,6.78
2022-12-14T17:59:33.884Z,7.10
2022-12-14T18:05:00.824Z,6.38
2022-12-14T18:10:25.237Z,5.92
2022-12-14T18:15:50.949Z,6.09
2022-12-14T18:21:16.973Z,5.84
2022-12-14T18:26:40.812Z,5.57
2022-12-14T18:32:02.003Z,6.16
2022-12-14T18:37:32.751Z,6.51
2022-12-14T18:42:52.909Z,6.01
2022-12-14T18:48:19.392Z,5.92
2022-12-14T18:53:40.232Z,5.63
2022-12-14T18:59:04.812Z,5.43
2022-12-14T19:04:31.869Z,6.20
2022-12-14T19:09:58.145Z,6.41
2022-12-14T19:15:23.961Z,5.28
2022-12-14T19:20:44.644Z,5.67
2022-12-14T19:26:05.810Z,5.63
2022-12-14T19:31:30.353Z,5.50
2022-12-14T19:36:53.632Z,6.16
2022-12-14T19:42:20.174Z,6.63
2022-12-14T19:47:46.623Z,5.93
2022-12-14T19:53:10.753Z,5.53
2022-12-14T19:58:37.851Z,6.23
2022-12-14T20:04:04.392Z,6.27
2022-12-14T20:09:29.342Z,5.85
2022-12-14T20:14:53.573Z,6.76
2022-12-14T20:20:17.459Z,6.41
2022-12-14T20:25:44.844Z,7.03
2022-12-14T20:31:10.354Z,7.55
2022-12-14T20:36:31.028Z,6.95
2022-12-14T20:41:51.898Z,8.73
2022-12-14T20:47:17.787Z,7.88
2022-12-14T20:52:44.606Z,7.82
2022-12-14T20:58:06.765Z,8.93
2022-12-14T21:03:32.435Z,8.25
2022-12-14T21:08:58.784Z,8.18
2022-12-14T21:14:22.645Z,7.15
2022-12-14T21:19:46.172Z,7.25
2022-12-14T21:25:07.953Z,7.96
2022-12-14T21:30:29.314Z,8.34
2022-12-14T21:35:55.183Z,8.43
2022-12-14T21:41:24.602Z,8.41
2022-12-14T21:46:46.011Z,8.87
2022-12-14T21:52:10.033Z,9.00
2022-12-14T21:57:37.198Z,8.36
2022-12-14T22:03:04.244Z,8.48
2022-12-14T22:08:28.922Z,9.51
2022-12-14T22:13:51.306Z,10.01
2022-12-14T22:19:18.005Z,12.14
2022-12-14T22:24:43.173Z,10.25
2022-12-14T22:30:11.891Z,9.86
2022-12-14T22:35:38.804Z,9.84
2022-12-14T22:40:59.854Z,8.25
2022-12-14T22:46:21.445Z,7.60
2022-12-14T22:51:47.251Z,8.92
2022-12-14T22:57:11.625Z,9.07
2022-12-14T23:02:36.015Z,8.07
2022-12-14T23:08:02.356Z,8.35
2022-12-14T23:13:28.355Z,9.15
2022-12-14T23:18:51.185Z,8.10
2022-12-14T23:24:16.064Z,8.75
2022-12-14T23:29:36.828Z,8.15
2022-12-14T23:35:04.221Z,8.30
2022-12-14T23:40:31.908Z,6.98
2022-12-14T23:45:53.469Z,7.69
2022-12-14T23:51:20.375Z,7.31
2022-12-14T23:56:46.958Z,7.56
